createdAt,value
2022-12-23T00:00:23.418Z,7.44
2022-12-23T00:01:29.527Z,7.45
2022-12-23T00:02:33.897Z,7.46
2022-12-23T00:03:39.576Z,7.44
2022-12-23T00:04:44.708Z,7.46
2022-12-23T00:05:51.209Z,7.46
2022-12-23T00:07:00.293Z,7.44
2022-12-23T00:08:06.383Z,7.43
2022-12-23T00:09:11.172Z,7.44
2022-12-23T00:10:15.148Z,7.43
2022-12-23T00:11:21.198Z,7.45
2022-12-23T00:12:44.639Z,7.44
2022-12-23T00:14:07.703Z,7.43
2022-12-23T00:15:14.591Z,7.40
2022-12-23T00:16:20.973Z,7.40
2022-12-23T00:17:26.112Z,7.41
2022-12-23T00:18:30.451Z,7.39
2022-12-23T00:19:34.187Z,7.38
2022-12-23T00:20:38.159Z,7.40
2022-12-23T00:21:41.924Z,7.36
2022-12-23T00:23:05.197Z,7.37
2022-12-23T00:24:26.539Z,7.39
2022-12-23T00:25:42.395Z,7.32
2022-12-23T00:26:46.185Z,7.35
2022-12-23T00:28:05.571Z,7.30
2022-12-23T00:29:10.349Z,7.28
2022-12-23T00:30:17.045Z,7.27
2022-12-23T00:31:21.513Z,7.29
2022-12-23T00:32:29.167Z,7.33
2022-12-23T00:33:38.266Z,7.31
2022-12-23T00:34:47.374Z,7.32
2022-12-23T00:35:56.117Z,7.23
2022-12-23T00:37:02.609Z,7.25
2022-12-23T00:38:07.014Z,7.17
2022-12-23T00:39:36.853Z,7.18
2022-12-23T00:41:00.845Z,7.14
2022-12-23T00:42:45.859Z,7.12
2022-12-23T00:44:10.540Z,7.15
2022-12-23T00:45:23.103Z,7.17
2022-12-23T00:46:28.599Z,7.17
2022-12-23T00:47:51.258Z,7.18
2022-12-23T00:49:15.647Z,7.10
2022-12-23T00:50:20.996Z,7.12
2022-12-23T00:51:35.620Z,7.09
2022-12-23T00:52:41.157Z,7.04
2022-12-23T00:53:45.605Z,6.94
2022-12-23T00:55:00.798Z,6.99
2022-12-23T00:56:06.005Z,7.01
2022-12-23T00:57:18.171Z,7.00
2022-12-23T00:58:24.708Z,7.04
2022-12-23T00:59:30.877Z,7.00
2022-12-23T01:01:05.800Z,7.00
2022-12-23T01:02:51.451Z,6.99
2022-12-23T01:04:16.474Z,7.01
2022-12-23T01:05:39.483Z,6.98
2022-12-23T01:06:43.507Z,6.98
2022-12-23T01:07:58.041Z,7.02
2022-12-23T01:09:02.182Z,7.02
2022-12-23T01:10:10.470Z,7.00
2022-12-23T01:11:15.267Z,7.03
2022-12-23T01:12:24.395Z,6.96
2022-12-23T01:13:28.816Z,6.94
2022-12-23T01:14:36.141Z,6.93
2022-12-23T01:15:39.646Z,6.97
2022-12-23T01:16:49.451Z,6.97
2022-12-23T01:17:53.149Z,6.94
2022-12-23T01:18:56.880Z,6.91
2022-12-23T01:20:00.744Z,6.96
2022-12-23T01:21:15.043Z,6.97
2022-12-23T01:22:19.079Z,7.00
2022-12-23T01:23:22.698Z,6.99
2022-12-23T01:24:33.785Z,7.00
2022-12-23T01:25:37.894Z,6.96
2022-12-23T01:26:43.070Z,6.89
2022-12-23T01:27:46.878Z,6.88
2022-12-23T01:28:58.131Z,6.89
2022-12-23T01:30:29.346Z,6.93
2022-12-23T01:33:31.444Z,6.83
2022-12-23T01:34:37.373Z,6.85
2022-12-23T01:35:44.450Z,6.85
2022-12-23T01:36:50.155Z,6.88
2022-12-23T01:37:54.351Z,6.81
2022-12-23T01:38:58.557Z,6.81
2022-12-23T01:40:04.552Z,6.83
2022-12-23T01:41:39.542Z,6.84
2022-12-23T01:42:53.836Z,6.82
2022-12-23T01:43:58.602Z,6.77
2022-12-23T01:45:18.319Z,6.76
2022-12-23T01:46:22.948Z,6.72
2022-12-23T01:47:53.437Z,6.75
2022-12-23T01:49:05.465Z,6.76
2022-12-23T01:50:33.270Z,6.77
2022-12-23T01:51:37.857Z,6.72
2022-12-23T01:53:06.851Z,6.73
2022-12-23T01:54:13.445Z,6.75
2022-12-23T01:55:25.463Z,6.73
2022-12-23T01:56:40.947Z,6.73
2022-12-23T01:57:47.640Z,6.72
2022-12-23T01:59:37.195Z,6.70
2022-12-23T02:01:20.493Z,6.62
2022-12-23T02:02:49.022Z,6.58
2022-12-23T02:04:01.762Z,6.59
2022-12-23T02:05:08.301Z,6.49
2022-12-23T02:07:04.373Z,6.57
2022-12-23T02:08:45.469Z,6.60
2022-12-23T02:12:18.093Z,6.56
2022-12-23T02:14:10.492Z,6.51
2022-12-23T02:16:11.062Z,6.43
2022-12-23T02:17:31.127Z,6.49
2022-12-23T02:19:06.380Z,6.50
2022-12-23T02:20:40.992Z,6.48
2022-12-23T02:22:25.249Z,6.52
2022-12-23T02:24:09.255Z,6.50
2022-12-23T02:25:44.999Z,6.53
2022-12-23T02:27:26.925Z,6.53
2022-12-23T02:28:55.167Z,6.59
2022-12-23T02:30:11.454Z,6.63
2022-12-23T02:31:38.075Z,6.64
2022-12-23T02:33:03.758Z,6.64
2022-12-23T02:34:27.414Z,6.64
2022-12-23T02:35:54.593Z,6.66
2022-12-23T02:37:43.562Z,6.71
2022-12-23T02:39:37.138Z,6.74
2022-12-23T02:40:56.399Z,6.75
2022-12-23T02:42:16.667Z,6.77
2022-12-23T02:43:43.488Z,6.76
2022-12-23T02:45:02.846Z,6.71
2022-12-23T02:46:52.101Z,6.72
2022-12-23T02:48:22.798Z,6.75
2022-12-23T02:49:50.098Z,6.77
2022-12-23T02:50:58.238Z,6.77
2022-12-23T02:52:14.721Z,6.80
2022-12-23T02:53:55.145Z,6.77
2022-12-23T02:55:08.993Z,6.78
2022-12-23T02:56:16.035Z,6.75
2022-12-23T02:57:31.872Z,6.75
2022-12-23T02:58:48.305Z,6.78
2022-12-23T02:59:58.196Z,6.74
2022-12-23T03:01:06.690Z,6.78
2022-12-23T03:02:11.659Z,6.79
2022-12-23T03:03:28.807Z,6.80
2022-12-23T03:04:41.405Z,6.80
2022-12-23T03:05:49.208Z,6.81
2022-12-23T03:06:58.094Z,6.81
2022-12-23T03:08:15.912Z,6.83
2022-12-23T03:09:39.077Z,6.85
2022-12-23T03:11:03.292Z,6.83
2022-12-23T03:12:25.111Z,6.85
2022-12-23T03:13:56.041Z,6.85
2022-12-23T03:15:23.919Z,6.86
2022-12-23T03:16:32.881Z,6.88
2022-12-23T03:18:28.380Z,6.89
2022-12-23T03:19:48.152Z,6.88
2022-12-23T03:21:06.761Z,6.91
2022-12-23T03:22:44.004Z,6.93
2022-12-23T03:24:09.371Z,6.88
2022-12-23T03:26:01.325Z,6.90
2022-12-23T03:27:12.693Z,6.88
2022-12-23T03:28:41.806Z,6.88
2022-12-23T03:30:06.993Z,6.92
2022-12-23T03:31:18.532Z,6.88
2022-12-23T03:32:27.668Z,6.91
2022-12-23T03:33:46.309Z,6.90
2022-12-23T03:34:57.054Z,6.90
2022-12-23T03:36:24.448Z,6.92
2022-12-23T03:37:32.991Z,6.90
2022-12-23T03:38:41.543Z,6.90
2022-12-23T03:39:57.484Z,6.91
2022-12-23T03:41:13.886Z,6.91
2022-12-23T03:42:33.637Z,6.90
2022-12-23T03:43:55.269Z,6.89
2022-12-23T03:46:48.951Z,6.91
2022-12-23T03:48:06.977Z,6.90
2022-12-23T03:49:27.993Z,6.87
2022-12-23T03:50:37.292Z,6.87
2022-12-23T03:51:52.863Z,6.87
2022-12-23T03:53:15.958Z,6.88
2022-12-23T03:54:31.878Z,6.86
2022-12-23T03:55:59.689Z,6.87
2022-12-23T03:57:26.906Z,6.88
2022-12-23T03:58:39.923Z,6.89
2022-12-23T03:59:54.000Z,6.90
2022-12-23T04:01:30.490Z,6.90
2022-12-23T04:02:51.143Z,6.90
2022-12-23T04:04:37.531Z,6.85
2022-12-23T04:05:47.304Z,6.84
2022-12-23T04:07:15.807Z,6.85
2022-12-23T04:08:40.219Z,6.86
2022-12-23T04:09:45.298Z,6.87
2022-12-23T04:10:51.892Z,6.87
2022-12-23T04:11:58.695Z,6.87
2022-12-23T04:13:04.678Z,6.87
2022-12-23T04:14:10.166Z,6.85
2022-12-23T04:15:21.512Z,6.76
2022-12-23T04:16:27.491Z,6.74
2022-12-23T04:17:32.252Z,6.80
2022-12-23T04:18:36.511Z,6.80
2022-12-23T04:19:40.906Z,6.84
2022-12-23T04:20:48.058Z,6.86
2022-12-23T04:21:53.213Z,6.88
2022-12-23T04:22:56.727Z,6.89
2022-12-23T04:24:00.820Z,6.88
2022-12-23T04:25:06.827Z,6.93
2022-12-23T04:26:11.187Z,6.87
2022-12-23T04:27:16.594Z,6.88
2022-12-23T04:28:20.572Z,6.89
2022-12-23T04:29:24.277Z,6.90
2022-12-23T04:30:33.555Z,6.90
2022-12-23T04:31:38.861Z,6.90
2022-12-23T04:32:43.696Z,6.89
2022-12-23T04:33:47.997Z,6.88
2022-12-23T04:34:56.592Z,6.90
2022-12-23T04:36:01.308Z,6.91
2022-12-23T04:37:09.368Z,6.91
2022-12-23T04:38:14.568Z,6.91
2022-12-23T04:39:20.133Z,6.93
2022-12-23T04:40:24.532Z,6.91
2022-12-23T04:41:29.154Z,6.93
2022-12-23T04:42:33.078Z,6.87
2022-12-23T04:43:37.501Z,6.89
2022-12-23T04:44:41.088Z,6.90
2022-12-23T04:45:49.917Z,6.87
2022-12-23T04:46:54.086Z,6.90
2022-12-23T04:47:58.826Z,6.89
2022-12-23T04:49:11.125Z,6.90
2022-12-23T04:50:18.650Z,6.90
2022-12-23T04:51:25.350Z,6.91
2022-12-23T04:52:29.733Z,6.91
2022-12-23T04:53:36.716Z,6.93
2022-12-23T04:54:45.816Z,6.93
2022-12-23T04:55:55.500Z,6.93
2022-12-23T04:56:59.187Z,6.93
2022-12-23T04:58:05.534Z,6.91
2022-12-23T04:59:11.554Z,6.89
2022-12-23T05:00:20.140Z,6.90
2022-12-23T05:01:24.705Z,6.90
2022-12-23T05:02:30.235Z,6.88
2022-12-23T05:03:34.984Z,6.88
2022-12-23T05:04:45.269Z,6.87
2022-12-23T05:05:49.898Z,6.86
2022-12-23T05:06:55.929Z,6.85
2022-12-23T05:08:05.651Z,6.86
2022-12-23T05:09:12.206Z,6.85
2022-12-23T05:10:17.451Z,6.84
2022-12-23T05:11:21.124Z,6.85
2022-12-23T05:12:24.993Z,6.83
2022-12-23T05:13:28.596Z,6.81
2022-12-23T05:14:32.915Z,6.82
2022-12-23T05:15:36.739Z,6.82
2022-12-23T05:16:40.861Z,6.81
2022-12-23T05:17:44.753Z,6.81
2022-12-23T05:18:49.226Z,6.82
2022-12-23T05:19:53.320Z,6.80
2022-12-23T05:20:56.953Z,6.80
2022-12-23T05:22:03.235Z,6.80
2022-12-23T05:23:08.418Z,6.80
2022-12-23T05:24:16.489Z,6.77
2022-12-23T05:25:21.664Z,6.76
2022-12-23T05:26:28.564Z,6.76
2022-12-23T05:27:37.541Z,6.76
2022-12-23T05:28:43.586Z,6.75
2022-12-23T05:29:47.322Z,6.75
2022-12-23T05:31:00.124Z,6.74
2022-12-23T05:32:05.934Z,6.71
2022-12-23T05:33:13.931Z,6.66
2022-12-23T05:34:20.289Z,6.67
2022-12-23T05:35:27.053Z,6.63
2022-12-23T05:36:31.170Z,6.61
2022-12-23T05:37:35.561Z,6.53
2022-12-23T05:38:41.251Z,6.53
2022-12-23T05:39:45.620Z,6.53
2022-12-23T05:40:50.063Z,6.50
2022-12-23T05:41:54.222Z,6.51
2022-12-23T05:42:57.723Z,6.49
2022-12-23T05:44:01.321Z,6.47
2022-12-23T05:45:06.979Z,6.46
2022-12-23T05:46:26.222Z,6.46
2022-12-23T05:47:32.882Z,6.43
2022-12-23T05:48:36.563Z,6.41
2022-12-23T05:49:40.984Z,6.40
2022-12-23T05:50:50.922Z,6.36
2022-12-23T05:51:54.993Z,6.35
2022-12-23T05:53:00.213Z,6.33
2022-12-23T05:54:04.226Z,6.30
2022-12-23T05:55:11.975Z,6.29
2022-12-23T05:56:17.365Z,6.27
2022-12-23T05:57:23.056Z,6.26
2022-12-23T05:58:28.211Z,6.26
2022-12-23T05:59:35.396Z,6.25
2022-12-23T06:00:44.431Z,6.25
2022-12-23T06:01:51.465Z,6.25
2022-12-23T06:02:55.716Z,6.25
2022-12-23T06:04:05.923Z,6.25
2022-12-23T06:05:12.793Z,6.22
2022-12-23T06:06:24.865Z,6.22
2022-12-23T06:07:28.398Z,6.19
2022-12-23T06:08:32.086Z,6.17
2022-12-23T06:09:35.955Z,6.17
2022-12-23T06:10:46.737Z,6.15
2022-12-23T06:11:54.034Z,6.16
2022-12-23T06:13:04.110Z,6.15
2022-12-23T06:14:11.098Z,6.11
2022-12-23T06:15:17.034Z,6.11
2022-12-23T06:16:21.075Z,6.09
2022-12-23T06:17:27.203Z,6.08
2022-12-23T06:18:31.403Z,6.06
2022-12-23T06:19:37.085Z,6.07
2022-12-23T06:20:41.021Z,6.08
2022-12-23T06:21:45.785Z,6.07
2022-12-23T06:22:49.541Z,6.06
2022-12-23T06:23:53.345Z,6.07
2022-12-23T06:24:57.370Z,6.07
2022-12-23T06:26:03.295Z,6.06
2022-12-23T06:27:09.309Z,6.06
2022-12-23T06:28:16.836Z,6.02
2022-12-23T06:29:24.112Z,6.03
2022-12-23T06:30:29.815Z,6.00
2022-12-23T06:31:34.481Z,5.98
2022-12-23T06:32:41.171Z,5.96
2022-12-23T06:33:45.130Z,5.98
2022-12-23T06:34:53.727Z,6.00
2022-12-23T06:35:58.557Z,6.02
2022-12-23T06:37:02.847Z,6.02
2022-12-23T06:38:12.036Z,6.03
2022-12-23T06:39:20.971Z,6.04
2022-12-23T06:40:25.743Z,6.04
2022-12-23T06:41:53.441Z,6.05
2022-12-23T06:42:59.823Z,6.03
2022-12-23T06:44:05.063Z,6.01
2022-12-23T06:45:19.256Z,6.03
2022-12-23T06:46:23.705Z,6.03
2022-12-23T06:47:29.030Z,6.04
2022-12-23T06:48:35.351Z,6.03
2022-12-23T06:49:39.275Z,6.03
2022-12-23T06:50:43.659Z,6.02
2022-12-23T06:51:47.844Z,6.02
2022-12-23T06:52:51.509Z,6.04
2022-12-23T06:53:55.438Z,6.03
2022-12-23T06:55:04.477Z,6.04
2022-12-23T06:56:16.262Z,6.03
2022-12-23T06:57:21.093Z,6.02
2022-12-23T06:58:25.467Z,6.01
2022-12-23T06:59:34.137Z,6.02
2022-12-23T07:00:39.395Z,6.00
2022-12-23T07:01:45.087Z,6.02
2022-12-23T07:02:49.333Z,6.02
2022-12-23T07:03:53.408Z,6.01
2022-12-23T07:05:00.003Z,6.01
2022-12-23T07:06:03.955Z,6.00
2022-12-23T07:07:12.669Z,6.01
2022-12-23T07:08:18.480Z,6.02
2022-12-23T07:09:24.885Z,6.02
2022-12-23T07:10:38.385Z,6.02
2022-12-23T07:11:42.118Z,6.00
2022-12-23T07:12:50.505Z,6.03
2022-12-23T07:13:54.725Z,6.03
2022-12-23T07:14:58.239Z,6.02
2022-12-23T07:16:13.040Z,6.03
2022-12-23T07:17:17.173Z,6.03
2022-12-23T07:18:25.601Z,6.02
2022-12-23T07:19:29.209Z,6.02
2022-12-23T07:20:32.913Z,6.02
2022-12-23T07:21:36.908Z,6.02
2022-12-23T07:22:41.487Z,6.03
2022-12-23T07:23:45.729Z,6.01
2022-12-23T07:24:49.476Z,6.00
2022-12-23T07:25:54.289Z,6.03
2022-12-23T07:26:58.570Z,5.98
2022-12-23T07:28:03.804Z,6.01
2022-12-23T07:29:09.229Z,6.03
2022-12-23T07:30:13.459Z,6.02
2022-12-23T07:31:22.295Z,6.03
2022-12-23T07:32:29.448Z,6.04
2022-12-23T07:33:34.066Z,6.04
2022-12-23T07:34:39.995Z,6.05
2022-12-23T07:35:45.571Z,6.06
2022-12-23T07:36:49.846Z,6.08
2022-12-23T07:38:01.484Z,6.09
2022-12-23T07:39:06.073Z,6.08
2022-12-23T07:40:12.149Z,6.10
2022-12-23T07:41:15.767Z,6.11
2022-12-23T07:42:44.214Z,6.12
2022-12-23T07:43:49.039Z,6.11
2022-12-23T07:44:52.909Z,6.14
2022-12-23T07:46:01.132Z,6.13
2022-12-23T07:47:07.418Z,6.13
2022-12-23T07:48:16.756Z,6.12
2022-12-23T07:49:21.720Z,6.09
2022-12-23T07:50:46.380Z,6.13
2022-12-23T07:51:50.871Z,6.12
2022-12-23T07:52:59.474Z,6.11
2022-12-23T07:54:03.629Z,6.10
2022-12-23T07:55:15.001Z,6.10
2022-12-23T07:56:19.992Z,6.13
2022-12-23T07:57:30.162Z,6.15
2022-12-23T07:58:33.898Z,6.18
2022-12-23T07:59:38.851Z,6.20
2022-12-23T08:00:43.161Z,6.22
2022-12-23T08:01:51.345Z,6.23
2022-12-23T08:02:55.730Z,6.24
2022-12-23T08:04:02.705Z,6.23
2022-12-23T08:05:11.676Z,6.20
2022-12-23T08:06:20.318Z,6.20
2022-12-23T08:07:25.575Z,6.20
2022-12-23T08:08:30.443Z,6.21
2022-12-23T08:09:34.121Z,6.23
2022-12-23T08:10:47.749Z,6.25
2022-12-23T08:11:56.049Z,6.29
2022-12-23T08:13:04.435Z,6.33
2022-12-23T08:14:10.825Z,6.35
2022-12-23T08:15:19.349Z,6.37
2022-12-23T08:16:23.772Z,6.39
2022-12-23T08:17:32.463Z,6.41
2022-12-23T08:18:40.914Z,6.42
2022-12-23T08:19:52.976Z,6.44
2022-12-23T08:21:11.776Z,6.45
2022-12-23T08:22:16.142Z,6.44
2022-12-23T08:23:24.749Z,6.44
2022-12-23T08:24:30.494Z,6.45
2022-12-23T08:25:34.268Z,6.45
2022-12-23T08:26:38.823Z,6.44
2022-12-23T08:27:46.331Z,6.49
2022-12-23T08:28:54.575Z,6.50
2022-12-23T08:29:58.470Z,6.54
2022-12-23T08:31:24.443Z,6.59
2022-12-23T08:32:28.799Z,6.55
2022-12-23T08:33:33.804Z,6.61
2022-12-23T08:34:39.501Z,6.65
2022-12-23T08:35:46.647Z,6.69
2022-12-23T08:36:51.948Z,6.73
2022-12-23T08:37:59.404Z,6.73
2022-12-23T08:39:18.750Z,6.75
2022-12-23T08:40:30.311Z,6.77
2022-12-23T08:41:46.051Z,6.78
2022-12-23T08:42:49.710Z,6.76
2022-12-23T08:43:55.342Z,6.75
2022-12-23T08:45:01.114Z,6.77
2022-12-23T08:46:06.260Z,6.80
2022-12-23T08:47:12.019Z,6.82
2022-12-23T08:48:17.070Z,6.83
2022-12-23T08:49:23.199Z,6.83
2022-12-23T08:50:27.787Z,6.83
2022-12-23T08:51:32.190Z,6.83
2022-12-23T08:52:36.191Z,6.85
2022-12-23T08:53:41.623Z,6.85
2022-12-23T08:54:45.440Z,6.84
2022-12-23T08:55:55.449Z,6.87
2022-12-23T08:57:00.342Z,6.86
2022-12-23T08:58:15.695Z,6.88
2022-12-23T08:59:21.628Z,6.88
2022-12-23T09:00:29.580Z,6.89
2022-12-23T09:01:35.318Z,6.87
2022-12-23T09:02:41.096Z,6.88
2022-12-23T09:03:45.911Z,6.90
2022-12-23T09:04:54.661Z,6.91
2022-12-23T09:06:06.310Z,6.93
2022-12-23T09:07:12.486Z,6.91
2022-12-23T09:08:24.521Z,6.96
2022-12-23T09:09:30.946Z,6.96
2022-12-23T09:10:45.064Z,6.97
2022-12-23T09:11:48.593Z,6.98
2022-12-23T09:12:52.587Z,6.99
2022-12-23T09:13:59.970Z,6.99
2022-12-23T09:15:03.875Z,6.98
2022-12-23T09:16:11.376Z,6.98
2022-12-23T09:17:15.414Z,6.98
2022-12-23T09:18:22.126Z,6.99
2022-12-23T09:19:26.070Z,7.01
2022-12-23T09:20:29.778Z,7.03
2022-12-23T09:21:34.170Z,7.04
2022-12-23T09:22:37.737Z,7.07
2022-12-23T09:23:44.943Z,7.10
2022-12-23T09:24:49.002Z,7.12
2022-12-23T09:25:57.250Z,7.13
2022-12-23T09:27:00.924Z,7.16
2022-12-23T09:28:27.749Z,7.18
2022-12-23T09:29:31.456Z,7.23
2022-12-23T09:30:35.583Z,7.26
2022-12-23T09:31:39.856Z,7.30
2022-12-23T09:32:44.429Z,7.32
2022-12-23T09:33:52.672Z,7.35
2022-12-23T09:34:58.682Z,7.39
2022-12-23T09:36:13.131Z,7.40
2022-12-23T09:37:23.772Z,7.41
2022-12-23T09:38:33.784Z,7.42
2022-12-23T09:39:40.037Z,7.45
2022-12-23T09:40:44.286Z,7.46
2022-12-23T09:42:27.818Z,7.47
2022-12-23T09:44:16.415Z,7.52
2022-12-23T09:46:05.733Z,7.52
2022-12-23T09:47:19.988Z,7.52
2022-12-23T09:48:32.816Z,7.54
2022-12-23T09:49:49.312Z,7.54
2022-12-23T09:50:56.688Z,7.55
2022-12-23T09:52:15.501Z,7.59
2022-12-23T09:53:26.092Z,7.54
2022-12-23T09:54:49.835Z,7.56
2022-12-23T09:56:18.639Z,7.58
2022-12-23T09:57:42.513Z,7.60
2022-12-23T09:59:25.775Z,7.61
2022-12-23T10:00:43.425Z,7.61
2022-12-23T10:02:15.504Z,7.63
2022-12-23T10:04:24.667Z,7.64
2022-12-23T10:06:02.649Z,7.65
2022-12-23T10:07:08.010Z,7.65
2022-12-23T10:08:39.443Z,7.65
2022-12-23T10:09:50.246Z,7.64
2022-12-23T10:11:19.219Z,7.67
2022-12-23T10:12:50.070Z,7.67
2022-12-23T10:14:13.455Z,7.68
2022-12-23T10:15:34.484Z,7.69
2022-12-23T10:16:53.489Z,7.71
2022-12-23T10:18:10.778Z,7.70
2022-12-23T10:19:28.863Z,7.72
2022-12-23T10:20:47.469Z,7.76
2022-12-23T10:22:01.279Z,7.77
2022-12-23T10:23:22.005Z,7.78
2022-12-23T10:24:45.227Z,7.77
2022-12-23T10:26:00.643Z,7.75
2022-12-23T10:27:27.173Z,7.78
2022-12-23T10:28:35.057Z,7.81
2022-12-23T10:29:47.035Z,7.82
2022-12-23T10:31:40.155Z,7.86
2022-12-23T10:33:40.416Z,7.88
2022-12-23T10:35:21.094Z,7.90
2022-12-23T10:37:19.993Z,7.91
2022-12-23T10:39:22.169Z,7.92
2022-12-23T10:40:53.084Z,7.93
2022-12-23T10:42:46.602Z,7.95
2022-12-23T10:44:18.478Z,7.96
2022-12-23T10:45:42.476Z,7.98
2022-12-23T10:47:17.070Z,7.99
2022-12-23T10:49:15.143Z,8.01
2022-12-23T10:50:46.632Z,7.97
2022-12-23T10:52:01.223Z,8.01
2022-12-23T10:53:15.439Z,8.04
2022-12-23T10:54:31.995Z,8.06
2022-12-23T10:55:39.485Z,8.09
2022-12-23T10:56:46.647Z,8.10
2022-12-23T10:57:52.668Z,8.11
2022-12-23T10:59:02.431Z,8.11
2022-12-23T11:00:28.064Z,8.16
2022-12-23T11:01:34.365Z,8.18
2022-12-23T11:03:28.384Z,8.18
2022-12-23T11:04:51.926Z,8.24
2022-12-23T11:05:59.158Z,8.26
2022-12-23T11:08:43.532Z,8.29
2022-12-23T11:10:21.762Z,8.33
2022-12-23T11:11:56.085Z,8.28
2022-12-23T11:13:09.411Z,8.29
2022-12-23T11:14:39.576Z,8.26
2022-12-23T11:15:43.358Z,8.24
2022-12-23T11:16:47.380Z,8.30
2022-12-23T11:18:27.256Z,8.34
2022-12-23T11:19:31.285Z,8.35
2022-12-23T11:20:38.929Z,8.32
2022-12-23T11:21:58.390Z,8.33
2022-12-23T11:23:05.276Z,8.36
2022-12-23T11:24:25.349Z,8.38
2022-12-23T11:25:42.038Z,8.44
2022-12-23T11:26:51.768Z,8.49
2022-12-23T11:28:14.721Z,8.45
2022-12-23T11:29:31.797Z,8.44
2022-12-23T11:30:55.482Z,8.46
2022-12-23T11:32:22.482Z,8.49
2022-12-23T11:33:40.949Z,8.51
2022-12-23T11:34:49.745Z,8.56
2022-12-23T11:36:14.117Z,8.63
2022-12-23T11:37:43.693Z,8.65
2022-12-23T11:39:29.533Z,8.71
2022-12-23T11:40:44.343Z,8.67
2022-12-23T11:41:55.823Z,8.66
2022-12-23T11:43:17.501Z,8.70
2022-12-23T11:44:45.279Z,8.76
2022-12-23T11:46:09.742Z,8.75
2022-12-23T11:47:23.248Z,8.81
2022-12-23T11:48:34.214Z,8.84
2022-12-23T11:50:02.133Z,8.87
2022-12-23T11:51:08.056Z,8.92
2022-12-23T11:52:19.127Z,8.98
2022-12-23T11:53:33.898Z,8.93
2022-12-23T11:54:38.286Z,8.97
2022-12-23T11:56:09.902Z,9.01
2022-12-23T11:57:21.816Z,9.00
2022-12-23T11:58:28.607Z,9.00
2022-12-23T11:59:50.194Z,9.04
2022-12-23T12:01:26.358Z,9.09
2022-12-23T12:02:43.251Z,9.11
2022-12-23T12:04:00.296Z,9.14
2022-12-23T12:05:35.683Z,9.16
2022-12-23T12:06:54.192Z,9.14
2022-12-23T12:08:22.592Z,9.14
2022-12-23T12:09:30.987Z,9.17
2022-12-23T12:10:38.554Z,9.11
2022-12-23T12:12:20.419Z,9.17
2022-12-23T12:13:39.459Z,9.21
2022-12-23T12:14:58.995Z,9.21
2022-12-23T12:16:33.340Z,9.20
2022-12-23T12:17:53.260Z,9.24
2022-12-23T12:19:11.423Z,9.25
2022-12-23T12:20:37.201Z,9.28
2022-12-23T12:21:40.958Z,9.29
2022-12-23T12:23:05.601Z,9.34
2022-12-23T12:24:30.371Z,9.37
2022-12-23T12:25:53.109Z,9.39
2022-12-23T12:27:05.150Z,9.42
2022-12-23T12:28:39.621Z,9.47
2022-12-23T12:30:08.126Z,9.50
2022-12-23T12:31:41.350Z,9.50
2022-12-23T12:33:05.776Z,9.56
2022-12-23T12:34:48.082Z,9.59
2022-12-23T12:36:22.921Z,9.61
2022-12-23T12:37:44.640Z,9.62
2022-12-23T12:38:54.950Z,9.66
2022-12-23T12:40:07.642Z,9.67
2022-12-23T12:42:05.327Z,9.67
2022-12-23T12:43:40.485Z,9.65
2022-12-23T12:45:27.246Z,9.67
2022-12-23T12:46:57.071Z,9.67
2022-12-23T12:48:13.098Z,9.67
2022-12-23T12:49:43.851Z,9.67
2022-12-23T12:51:16.324Z,9.65
2022-12-23T12:52:28.765Z,9.65
2022-12-23T12:53:34.015Z,9.65
2022-12-23T12:54:59.751Z,9.66
2022-12-23T12:56:53.742Z,9.65
2022-12-23T12:57:58.500Z,9.66
2022-12-23T12:59:02.224Z,9.66
2022-12-23T13:00:17.424Z,9.66
2022-12-23T13:01:46.278Z,9.65
2022-12-23T13:03:24.470Z,9.67
2022-12-23T13:05:17.191Z,9.66
2022-12-23T13:07:14.815Z,9.67
2022-12-23T13:08:18.583Z,9.63
2022-12-23T13:09:47.053Z,9.63
2022-12-23T13:11:07.375Z,9.64
2022-12-23T13:12:33.330Z,9.62
2022-12-23T13:14:13.743Z,9.62
2022-12-23T13:16:10.997Z,9.61
2022-12-23T13:17:34.886Z,9.61
2022-12-23T13:18:51.134Z,9.62
2022-12-23T13:20:32.160Z,9.60
2022-12-23T13:22:16.648Z,9.60
2022-12-23T13:24:25.709Z,9.58
2022-12-23T13:25:51.639Z,9.58
2022-12-23T13:27:02.048Z,9.56
2022-12-23T13:28:36.654Z,9.55
2022-12-23T13:30:14.354Z,9.56
2022-12-23T13:31:54.707Z,9.54
2022-12-23T13:33:41.156Z,9.47
2022-12-23T13:35:27.959Z,9.42
2022-12-23T13:37:19.237Z,9.43
2022-12-23T13:39:14.840Z,9.43
2022-12-23T13:41:00.149Z,9.39
2022-12-23T13:42:10.768Z,9.42
2022-12-23T13:44:44.572Z,9.37
2022-12-23T13:45:51.952Z,9.39
2022-12-23T13:47:43.777Z,9.41
2022-12-23T13:49:32.173Z,9.39
2022-12-23T13:51:11.987Z,9.38
2022-12-23T13:52:31.937Z,9.39
2022-12-23T13:54:12.480Z,9.37
2022-12-23T13:55:37.670Z,9.30
2022-12-23T13:57:36.886Z,9.23
2022-12-23T13:58:42.216Z,9.20
2022-12-23T14:00:05.455Z,9.10
2022-12-23T14:01:13.439Z,9.00
2022-12-23T14:02:38.079Z,9.00
2022-12-23T14:03:41.973Z,9.02
2022-12-23T14:05:00.683Z,9.01
2022-12-23T14:06:25.245Z,8.96
2022-12-23T14:07:33.987Z,8.92
2022-12-23T14:08:44.825Z,8.93
2022-12-23T14:09:58.297Z,8.83
2022-12-23T14:11:15.545Z,8.84
2022-12-23T14:12:42.676Z,8.87
2022-12-23T14:13:56.589Z,8.88
2022-12-23T14:15:43.349Z,8.87
2022-12-23T14:17:03.623Z,8.89
2022-12-23T14:19:07.840Z,8.83
2022-12-23T14:20:46.982Z,8.82
2022-12-23T14:22:49.252Z,8.79
2022-12-23T14:24:18.035Z,8.76
2022-12-23T14:26:01.032Z,8.71
2022-12-23T14:27:41.219Z,8.68
2022-12-23T14:28:58.084Z,8.62
2022-12-23T14:30:46.002Z,8.63
2022-12-23T14:32:02.069Z,8.63
2022-12-23T14:33:18.687Z,8.63
2022-12-23T14:34:33.123Z,8.64
2022-12-23T14:35:42.840Z,8.63
2022-12-23T14:37:18.011Z,8.65
2022-12-23T14:38:37.772Z,8.63
2022-12-23T14:39:44.707Z,8.64
2022-12-23T14:41:18.715Z,8.61
2022-12-23T14:42:49.110Z,8.64
2022-12-23T14:43:57.273Z,8.64
2022-12-23T14:45:37.744Z,8.64
2022-12-23T14:46:43.364Z,8.63
2022-12-23T14:47:53.603Z,8.64
2022-12-23T14:49:37.551Z,8.65
2022-12-23T14:50:35.256Z,8.66
2022-12-23T14:51:41.417Z,8.65
2022-12-23T14:53:02.859Z,8.68
2022-12-23T14:54:07.500Z,8.67
2022-12-23T14:55:31.645Z,8.67
2022-12-23T14:57:14.198Z,8.62
2022-12-23T14:58:39.256Z,8.63
2022-12-23T15:00:09.088Z,8.63
2022-12-23T15:01:17.976Z,8.60
2022-12-23T15:02:33.921Z,8.63
2022-12-23T15:03:55.970Z,8.59
2022-12-23T15:05:05.995Z,8.63
2022-12-23T15:06:42.938Z,8.62
2022-12-23T15:07:47.918Z,8.57
2022-12-23T15:08:55.911Z,8.57
2022-12-23T15:10:06.643Z,8.57
2022-12-23T15:11:23.570Z,8.59
2022-12-23T15:12:42.176Z,8.60
2022-12-23T15:13:46.141Z,8.59
2022-12-23T15:14:58.811Z,8.57
2022-12-23T15:16:02.740Z,8.56
2022-12-23T15:17:28.324Z,8.57
2022-12-23T15:18:32.714Z,8.58
2022-12-23T15:19:50.038Z,8.57
2022-12-23T15:21:12.671Z,8.56
2022-12-23T15:22:22.702Z,8.48
2022-12-23T15:23:29.754Z,8.51
2022-12-23T15:24:34.981Z,8.48
2022-12-23T15:25:46.405Z,8.50
2022-12-23T15:27:25.084Z,8.50
2022-12-23T15:28:27.551Z,8.49
2022-12-23T15:29:33.006Z,8.49
2022-12-23T15:30:51.761Z,8.49
2022-12-23T15:32:02.413Z,8.46
2022-12-23T15:33:34.854Z,8.44
2022-12-23T15:34:34.635Z,8.42
2022-12-23T15:35:40.639Z,8.40
2022-12-23T15:37:04.562Z,8.40
2022-12-23T15:38:17.444Z,8.43
2022-12-23T15:39:44.939Z,8.43
2022-12-23T15:41:07.795Z,8.42
2022-12-23T15:42:33.009Z,8.36
2022-12-23T15:43:43.599Z,8.37
2022-12-23T15:44:48.644Z,8.35
2022-12-23T15:45:54.109Z,8.36
2022-12-23T15:46:59.929Z,8.37
2022-12-23T15:48:26.217Z,8.37
2022-12-23T15:49:32.081Z,8.30
2022-12-23T15:50:45.685Z,8.30
2022-12-23T15:52:13.977Z,8.30
2022-12-23T15:53:31.745Z,8.28
2022-12-23T15:54:45.728Z,8.27
2022-12-23T15:55:50.526Z,8.28
2022-12-23T15:56:57.874Z,8.26
2022-12-23T15:58:06.048Z,8.28
2022-12-23T15:59:27.515Z,8.27
2022-12-23T16:00:50.288Z,8.27
2022-12-23T16:01:55.824Z,8.28
2022-12-23T16:03:02.183Z,8.28
2022-12-23T16:04:10.568Z,8.28
2022-12-23T16:05:40.528Z,8.24
2022-12-23T16:06:51.244Z,8.27
2022-12-23T16:08:12.309Z,8.27
2022-12-23T16:09:20.343Z,8.24
2022-12-23T16:10:24.468Z,8.22
2022-12-23T16:12:01.395Z,8.22
2022-12-23T16:13:18.529Z,8.20
2022-12-23T16:14:37.161Z,8.19
2022-12-23T16:15:41.202Z,8.19
2022-12-23T16:16:45.124Z,8.18
2022-12-23T16:17:49.972Z,8.18
2022-12-23T16:18:53.709Z,8.16
2022-12-23T16:20:24.948Z,8.16
2022-12-23T16:21:36.648Z,8.14
2022-12-23T16:22:41.187Z,8.13
2022-12-23T16:23:53.400Z,8.13
2022-12-23T16:25:04.325Z,8.13
2022-12-23T16:26:12.255Z,8.10
2022-12-23T16:27:33.245Z,8.11
2022-12-23T16:28:56.474Z,8.11
2022-12-23T16:30:23.060Z,8.12
2022-12-23T16:31:27.180Z,8.13
2022-12-23T16:32:31.197Z,8.14
2022-12-23T16:33:46.044Z,8.13
2022-12-23T16:34:52.541Z,8.13
2022-12-23T16:36:23.613Z,8.13
2022-12-23T16:37:27.427Z,8.13
2022-12-23T16:38:30.950Z,8.14
2022-12-23T16:39:43.100Z,8.15
2022-12-23T16:40:58.205Z,8.16
2022-12-23T16:42:04.727Z,8.18
2022-12-23T16:43:11.526Z,8.17
2022-12-23T16:44:16.748Z,8.18
2022-12-23T16:45:24.336Z,8.19
2022-12-23T16:46:36.676Z,8.21
2022-12-23T16:47:44.045Z,8.22
2022-12-23T16:49:00.916Z,8.22
2022-12-23T16:50:10.849Z,8.23